createdAt,value
2023-03-03T00:01:35.353Z,15.40
2023-03-03T00:04:02.382Z,15.20
2023-03-03T00:06:30.376Z,15.93
2023-03-03T00:08:57.386Z,15.57
2023-03-03T00:11:24.141Z,16.55
2023-03-03T00:13:57.511Z,16.83
2023-03-03T00:16:24.428Z,17.23
2023-03-03T00:18:54.200Z,15.90
2023-03-03T00:21:29.704Z,15.30
2023-03-03T00:24:12.043Z,15.02
2023-03-03T00:26:40.382Z,15.20
2023-03-03T00:29:30.635Z,15.57
2023-03-03T00:32:21.610Z,15.05
2023-03-03T00:34:49.294Z,14.82
2023-03-03T00:37:28.181Z,15.70
2023-03-03T00:40:09.823Z,15.55
2023-03-03T00:42:36.506Z,15.40
2023-03-03T00:45:39.209Z,15.52
2023-03-03T00:48:27.552Z,14.43
2023-03-03T00:51:33.107Z,14.02
2023-03-03T00:54:02.385Z,15.65
2023-03-03T00:56:31.594Z,15.93
2023-03-03T00:58:58.251Z,14.70
2023-03-03T01:01:25.569Z,14.38
2023-03-03T01:03:57.108Z,14.18
2023-03-03T01:06:24.051Z,13.43
2023-03-03T01:08:52.997Z,14.20
2023-03-03T01:11:28.619Z,13.57
2023-03-03T01:13:56.298Z,13.35
2023-03-03T01:16:23.170Z,14.15
2023-03-03T01:18:49.948Z,13.85
2023-03-03T01:21:16.590Z,14.80
2023-03-03T01:23:43.406Z,15.25
2023-03-03T01:26:10.635Z,15.25
2023-03-03T01:28:37.377Z,14.93
2023-03-03T01:31:05.278Z,14.05
2023-03-03T01:33:35.936Z,14.15
2023-03-03T01:36:03.974Z,13.23
2023-03-03T01:38:30.938Z,15.65
2023-03-03T01:40:59.293Z,15.20
2023-03-03T01:43:31.068Z,15.10
2023-03-03T01:46:00.700Z,16.00
2023-03-03T01:48:34.257Z,14.82
2023-03-03T01:51:06.372Z,14.35
2023-03-03T01:53:49.755Z,14.05
2023-03-03T01:56:16.488Z,14.02
2023-03-03T01:59:07.112Z,13.60
2023-03-03T02:01:36.762Z,13.65
2023-03-03T02:04:08.370Z,14.30
2023-03-03T02:06:39.938Z,14.93
2023-03-03T02:09:17.847Z,15.10
2023-03-03T02:11:47.360Z,13.90
2023-03-03T02:14:16.797Z,14.57
2023-03-03T02:16:43.578Z,15.02
2023-03-03T02:19:24.134Z,14.27
2023-03-03T02:21:52.087Z,13.13
2023-03-03T02:24:36.964Z,13.00
2023-03-03T02:27:03.811Z,11.70
2023-03-03T02:29:30.434Z,11.68
2023-03-03T02:31:57.282Z,12.10
2023-03-03T02:34:24.611Z,11.73
2023-03-03T02:36:51.684Z,12.27
2023-03-03T02:39:21.666Z,11.23
2023-03-03T02:41:51.898Z,11.93
2023-03-03T02:44:23.855Z,10.10
2023-03-03T02:46:52.343Z,10.75
2023-03-03T02:49:25.583Z,11.05
2023-03-03T02:51:52.955Z,11.23
2023-03-03T02:54:21.659Z,10.82
2023-03-03T02:56:48.792Z,10.82
2023-03-03T02:59:18.257Z,9.63
2023-03-03T03:01:46.170Z,10.18
2023-03-03T03:04:25.361Z,11.15
2023-03-03T03:06:53.414Z,11.15
2023-03-03T03:09:24.373Z,11.02
2023-03-03T03:11:51.354Z,12.55
2023-03-03T03:14:17.988Z,12.65
2023-03-03T03:16:44.951Z,12.25
2023-03-03T03:19:12.002Z,12.93
2023-03-03T03:21:41.066Z,12.32
2023-03-03T03:24:07.865Z,13.75
2023-03-03T03:26:34.508Z,12.20
2023-03-03T03:29:01.352Z,12.57
2023-03-03T03:31:30.653Z,11.95
2023-03-03T03:33:57.306Z,13.18
2023-03-03T03:36:27.011Z,12.52
2023-03-03T03:38:53.954Z,11.60
2023-03-03T03:41:20.657Z,12.32
2023-03-03T03:43:49.926Z,12.68
2023-03-03T03:46:16.698Z,13.07
2023-03-03T03:48:43.430Z,12.93
2023-03-03T03:51:12.046Z,11.30
2023-03-03T03:53:38.692Z,12.52
2023-03-03T03:56:08.107Z,12.48
2023-03-03T03:58:40.551Z,12.48
2023-03-03T04:01:10.028Z,11.15
2023-03-03T04:03:36.830Z,12.52
2023-03-03T04:06:03.619Z,13.02
2023-03-03T04:08:30.447Z,11.88
2023-03-03T04:10:57.093Z,12.10
2023-03-03T04:13:28.810Z,12.38
2023-03-03T04:15:55.532Z,11.75
2023-03-03T04:18:22.184Z,11.75
2023-03-03T04:20:49.973Z,12.50
2023-03-03T04:23:19.606Z,11.27
2023-03-03T04:25:48.076Z,11.00
2023-03-03T04:28:15.710Z,11.43
2023-03-03T04:30:42.730Z,11.85
2023-03-03T04:33:14.761Z,11.10
2023-03-03T04:35:44.067Z,12.02
2023-03-03T04:38:10.856Z,11.60
2023-03-03T04:40:37.636Z,11.35
2023-03-03T04:43:04.350Z,11.18
2023-03-03T04:45:31.002Z,11.25
2023-03-03T04:47:57.632Z,11.07
2023-03-03T04:50:24.638Z,11.18
2023-03-03T04:52:51.313Z,12.25
2023-03-03T04:55:18.009Z,11.32
2023-03-03T04:57:44.717Z,12.10
2023-03-03T05:00:15.763Z,11.43
2023-03-03T05:02:42.886Z,11.05
2023-03-03T05:05:10.658Z,12.68
2023-03-03T05:07:43.211Z,11.15
2023-03-03T05:10:10.899Z,11.65
2023-03-03T05:12:37.862Z,12.52
2023-03-03T05:15:09.966Z,12.20
2023-03-03T05:17:37.186Z,12.30
2023-03-03T05:20:05.829Z,11.75
2023-03-03T05:22:34.831Z,12.63
2023-03-03T05:25:04.265Z,11.18
2023-03-03T05:27:31.369Z,11.50
2023-03-03T05:30:00.241Z,12.93
2023-03-03T05:32:26.968Z,12.93
2023-03-03T05:34:53.998Z,12.45
2023-03-03T05:37:20.665Z,12.45
2023-03-03T05:39:47.446Z,12.10
2023-03-03T05:42:17.733Z,12.20
2023-03-03T05:44:44.417Z,11.40
2023-03-03T05:47:11.339Z,11.85
2023-03-03T05:49:38.071Z,11.85
2023-03-03T05:52:08.936Z,12.48
2023-03-03T05:54:40.239Z,12.00
2023-03-03T05:57:09.416Z,12.85
2023-03-03T05:59:36.060Z,13.15
2023-03-03T06:02:03.050Z,13.30
2023-03-03T06:04:29.742Z,12.73
2023-03-03T06:06:58.843Z,11.60
2023-03-03T06:09:26.284Z,12.20
2023-03-03T06:11:53.510Z,12.18
2023-03-03T06:14:24.812Z,13.65
2023-03-03T06:16:55.835Z,12.13
2023-03-03T06:19:22.606Z,13.30
2023-03-03T06:21:51.804Z,12.98
2023-03-03T06:24:18.461Z,13.20
2023-03-03T06:26:45.129Z,13.02
2023-03-03T06:29:15.706Z,13.30
2023-03-03T06:31:45.689Z,12.82
2023-03-03T06:34:12.420Z,13.07
2023-03-03T06:36:43.650Z,12.57
2023-03-03T06:39:10.819Z,13.02
2023-03-03T06:41:37.961Z,12.93
2023-03-03T06:44:04.837Z,12.10
2023-03-03T06:46:31.586Z,12.38
2023-03-03T06:48:58.232Z,12.55
2023-03-03T06:51:30.845Z,13.43
2023-03-03T06:53:59.930Z,13.77
2023-03-03T06:56:29.806Z,12.52
2023-03-03T06:58:58.936Z,13.38
2023-03-03T07:01:25.964Z,12.35
2023-03-03T07:03:52.734Z,12.57
2023-03-03T07:06:25.455Z,13.40
2023-03-03T07:08:55.401Z,12.68
2023-03-03T07:11:23.637Z,14.18
2023-03-03T07:13:52.254Z,13.48
2023-03-03T07:16:26.652Z,13.68
2023-03-03T07:19:05.361Z,12.80
2023-03-03T07:21:36.728Z,12.43
2023-03-03T07:24:26.851Z,12.15
2023-03-03T07:27:18.366Z,13.20
2023-03-03T07:29:48.604Z,12.52
2023-03-03T07:32:37.872Z,11.88
2023-03-03T07:35:30.640Z,12.68
2023-03-03T07:37:57.763Z,14.98
2023-03-03T07:40:38.878Z,14.27
2023-03-03T07:43:35.606Z,14.70
2023-03-03T07:46:17.311Z,13.38
2023-03-03T07:48:47.135Z,14.30
2023-03-03T07:51:29.965Z,15.07
2023-03-03T07:54:28.399Z,16.17
2023-03-03T07:57:08.957Z,15.15
2023-03-03T07:59:36.989Z,17.10
2023-03-03T08:02:23.857Z,17.35
2023-03-03T08:04:52.543Z,18.40
2023-03-03T08:07:23.617Z,19.55
2023-03-03T08:09:59.086Z,19.35
2023-03-03T08:12:47.275Z,20.13
2023-03-03T08:15:25.371Z,21.15
2023-03-03T08:17:54.997Z,20.77
2023-03-03T08:20:48.255Z,23.42
2023-03-03T08:23:17.167Z,23.50
2023-03-03T08:25:44.562Z,23.10
2023-03-03T08:28:12.589Z,22.83
2023-03-03T08:30:39.416Z,23.95
2023-03-03T08:33:06.454Z,23.73
2023-03-03T08:35:33.233Z,23.92
2023-03-03T08:38:00.141Z,22.63
2023-03-03T08:40:26.933Z,21.75
2023-03-03T08:42:54.467Z,22.92
2023-03-03T08:45:21.661Z,23.00
2023-03-03T08:47:50.982Z,22.80
2023-03-03T08:50:18.202Z,23.60
2023-03-03T08:52:45.257Z,23.00
2023-03-03T08:55:12.695Z,24.10
2023-03-03T08:57:39.651Z,23.90
2023-03-03T09:00:09.243Z,22.33
2023-03-03T09:02:36.020Z,23.38
2023-03-03T09:05:03.061Z,23.65
2023-03-03T09:07:29.936Z,23.63
2023-03-03T09:09:59.382Z,24.70
2023-03-03T09:12:36.553Z,23.02
2023-03-03T09:15:29.160Z,21.98
2023-03-03T09:18:20.158Z,23.15
2023-03-03T09:20:52.662Z,22.60
2023-03-03T09:23:47.247Z,22.30
2023-03-03T09:26:23.170Z,22.35
2023-03-03T09:28:50.381Z,23.83
2023-03-03T09:31:43.723Z,21.40
2023-03-03T09:34:38.537Z,22.90
2023-03-03T09:37:44.469Z,23.55
2023-03-03T09:40:55.835Z,21.13
2023-03-03T09:43:30.734Z,22.48
2023-03-03T09:46:26.440Z,21.25
2023-03-03T09:49:17.048Z,23.33
2023-03-03T09:51:58.120Z,22.75
2023-03-03T09:54:55.913Z,23.25
2023-03-03T09:57:31.926Z,22.65
2023-03-03T10:00:27.804Z,21.77
2023-03-03T10:03:05.740Z,22.17
2023-03-03T10:06:05.537Z,22.63
2023-03-03T10:09:00.014Z,21.58
2023-03-03T10:14:54.669Z,22.88
2023-03-03T10:17:27.359Z,23.17
2023-03-03T10:20:13.339Z,23.70
2023-03-03T10:22:53.574Z,23.95
2023-03-03T10:25:50.768Z,23.60
2023-03-03T10:28:30.208Z,23.95
2023-03-03T10:31:28.479Z,24.08
2023-03-03T10:34:17.441Z,23.33
2023-03-03T10:37:02.910Z,24.92
2023-03-03T10:39:35.844Z,24.20
2023-03-03T10:42:37.682Z,22.92
2023-03-03T10:45:16.502Z,23.45
2023-03-03T10:48:04.423Z,24.40
2023-03-03T10:50:53.131Z,23.60
2023-03-03T10:53:34.918Z,22.75
2023-03-03T10:56:27.703Z,24.30
2023-03-03T10:58:58.122Z,23.65
2023-03-03T11:01:45.175Z,23.35
2023-03-03T11:04:25.238Z,23.50
2023-03-03T11:07:01.141Z,23.95
2023-03-03T11:09:42.805Z,23.40
2023-03-03T11:12:41.057Z,24.25
2023-03-03T11:15:33.427Z,22.42
2023-03-03T11:18:28.603Z,23.35
2023-03-03T11:21:19.821Z,23.20
2023-03-03T11:23:55.772Z,23.70
2023-03-03T11:26:54.716Z,22.10
2023-03-03T11:29:38.258Z,23.88
2023-03-03T11:32:16.728Z,23.92
2023-03-03T11:35:12.976Z,24.73
2023-03-03T11:37:39.690Z,25.15
2023-03-03T11:40:24.588Z,24.40
2023-03-03T11:43:01.988Z,24.75
2023-03-03T11:45:43.761Z,24.20
2023-03-03T11:48:30.618Z,25.63
2023-03-03T11:51:13.520Z,25.90
2023-03-03T11:54:05.613Z,23.67
2023-03-03T11:56:46.823Z,23.27
2023-03-03T11:59:47.376Z,23.88
2023-03-03T12:02:14.018Z,24.42
2023-03-03T12:04:55.856Z,24.48
2023-03-03T12:07:48.071Z,24.83
2023-03-03T12:10:36.094Z,23.73
2023-03-03T12:13:07.394Z,25.27
2023-03-03T12:15:49.861Z,24.05
2023-03-03T12:18:53.717Z,23.48
2023-03-03T12:21:50.370Z,23.30
2023-03-03T12:24:58.015Z,23.65
2023-03-03T12:27:32.600Z,24.48
2023-03-03T12:30:06.291Z,24.65
2023-03-03T12:32:56.674Z,25.00
2023-03-03T12:35:29.394Z,24.65
2023-03-03T12:38:02.131Z,24.38
2023-03-03T12:40:35.081Z,26.92
2023-03-03T12:43:19.891Z,26.02
2023-03-03T12:45:53.612Z,26.77
2023-03-03T12:48:35.501Z,25.08
2023-03-03T12:51:09.568Z,25.70
2023-03-03T12:53:57.391Z,24.02
2023-03-03T12:56:42.784Z,25.77
2023-03-03T12:59:26.553Z,25.85
2023-03-03T13:02:25.538Z,25.67
2023-03-03T13:05:07.125Z,25.55
2023-03-03T13:07:46.118Z,24.67
2023-03-03T13:10:42.175Z,23.58
2023-03-03T13:13:27.036Z,24.73
2023-03-03T13:16:01.090Z,24.98
2023-03-03T13:19:09.644Z,24.33
2023-03-03T13:21:54.863Z,24.85
2023-03-03T13:24:34.651Z,24.35
2023-03-03T13:27:12.668Z,25.35
2023-03-03T13:29:43.359Z,24.42
2023-03-03T13:32:21.526Z,24.42
2023-03-03T13:35:05.439Z,22.73
2023-03-03T13:37:45.452Z,24.00
2023-03-03T13:40:41.685Z,24.10
2023-03-03T13:43:31.978Z,23.75
2023-03-03T13:46:24.696Z,22.20
2023-03-03T13:49:06.575Z,23.42
2023-03-03T13:51:45.154Z,23.08
2023-03-03T13:54:39.902Z,21.48
2023-03-03T13:57:20.350Z,22.27
2023-03-03T13:59:47.036Z,21.48
2023-03-03T14:02:43.587Z,21.55
2023-03-03T14:05:24.772Z,22.05
2023-03-03T14:08:19.994Z,22.90
2023-03-03T14:11:17.932Z,22.35
2023-03-03T14:13:50.854Z,22.58
2023-03-03T14:16:27.863Z,22.95
2023-03-03T14:19:03.338Z,23.20
2023-03-03T14:22:04.028Z,21.73
2023-03-03T14:24:31.001Z,22.17
2023-03-03T14:26:59.707Z,21.65
2023-03-03T14:29:29.092Z,21.60
2023-03-03T14:32:02.254Z,22.40
2023-03-03T14:34:41.533Z,22.27
2023-03-03T14:37:26.128Z,21.98
2023-03-03T14:40:20.948Z,21.77
2023-03-03T14:42:54.798Z,20.85
2023-03-03T14:45:33.597Z,22.08
2023-03-03T14:48:27.132Z,21.52
2023-03-03T14:50:59.163Z,21.10
2023-03-03T14:53:38.115Z,20.40
2023-03-03T14:56:25.894Z,21.05
2023-03-03T14:59:17.741Z,21.58
2023-03-03T15:01:44.711Z,21.35
2023-03-03T15:04:25.797Z,21.65
2023-03-03T15:06:54.744Z,19.98
2023-03-03T15:09:35.913Z,20.90
2023-03-03T15:12:18.396Z,20.42
2023-03-03T15:14:50.330Z,19.95
2023-03-03T15:17:26.549Z,20.00
2023-03-03T15:20:35.944Z,19.77
2023-03-03T15:23:33.504Z,19.20
2023-03-03T15:26:31.340Z,20.23
2023-03-03T15:29:32.141Z,21.40
2023-03-03T15:32:21.921Z,22.63
2023-03-03T15:35:10.479Z,24.38
2023-03-03T15:38:00.575Z,22.60
2023-03-03T15:40:30.538Z,19.40
2023-03-03T15:43:12.481Z,19.25
2023-03-03T15:45:46.240Z,20.88
2023-03-03T15:53:56.485Z,18.85
2023-03-03T15:56:43.458Z,19.73
2023-03-03T15:59:27.601Z,18.67
2023-03-03T16:04:45.029Z,19.55
2023-03-03T16:07:23.900Z,18.02
2023-03-03T16:10:00.118Z,19.08
2023-03-03T16:12:48.636Z,18.85
2023-03-03T16:15:18.125Z,20.75
2023-03-03T16:18:26.368Z,18.70
2023-03-03T16:21:17.761Z,18.35
2023-03-03T16:23:49.399Z,17.92
2023-03-03T16:26:46.833Z,18.15
2023-03-03T16:29:31.641Z,18.55
2023-03-03T16:32:17.908Z,17.83
2023-03-03T16:34:54.689Z,17.50
2023-03-03T16:37:39.712Z,18.02
2023-03-03T16:40:26.090Z,17.02
2023-03-03T16:43:22.402Z,18.08
2023-03-03T16:45:52.186Z,18.38
2023-03-03T16:48:27.948Z,18.10
2023-03-03T16:51:28.691Z,17.48
2023-03-03T16:54:38.934Z,19.08
2023-03-03T16:57:27.712Z,18.95
2023-03-03T17:00:08.247Z,19.30
2023-03-03T17:03:11.391Z,18.30
2023-03-03T17:05:57.862Z,18.35
2023-03-03T17:08:50.191Z,18.45
2023-03-03T17:11:38.760Z,17.23
2023-03-03T17:14:22.860Z,17.75
2023-03-03T17:17:05.938Z,19.23
2023-03-03T17:20:00.641Z,17.42
2023-03-03T17:23:08.620Z,17.88
2023-03-03T17:25:45.496Z,18.02
2023-03-03T17:28:44.469Z,19.33
2023-03-03T17:31:43.413Z,19.88
2023-03-03T17:34:19.693Z,18.98
2023-03-03T17:37:03.452Z,18.42
2023-03-03T17:39:50.349Z,19.30
2023-03-03T17:42:20.046Z,18.17
2023-03-03T17:45:00.334Z,19.27
2023-03-03T17:47:42.288Z,18.17
2023-03-03T17:50:28.706Z,17.67
2023-03-03T17:53:04.346Z,18.63
2023-03-03T17:55:54.903Z,18.75
2023-03-03T17:58:47.104Z,18.92
2023-03-03T18:01:37.368Z,18.88
2023-03-03T18:04:15.846Z,19.25
2023-03-03T18:07:07.737Z,18.48
2023-03-03T18:10:01.971Z,19.17
2023-03-03T18:13:05.197Z,19.35
2023-03-03T18:15:47.371Z,19.13
2023-03-03T18:18:52.656Z,19.70
2023-03-03T18:21:28.408Z,19.35
2023-03-03T18:24:33.416Z,20.85
2023-03-03T18:27:25.401Z,20.17
2023-03-03T18:30:20.595Z,20.77
2023-03-03T18:32:56.220Z,21.13
2023-03-03T18:35:45.588Z,20.88
2023-03-03T18:38:18.026Z,22.48
2023-03-03T18:41:00.143Z,23.05
2023-03-03T18:43:45.265Z,21.83
2023-03-03T18:46:24.144Z,22.20
2023-03-03T18:48:56.736Z,21.90
2023-03-03T18:51:38.525Z,21.63
2023-03-03T18:54:17.274Z,22.55
2023-03-03T18:56:49.714Z,22.73
2023-03-03T18:59:41.072Z,23.23
2023-03-03T19:02:19.710Z,21.48
2023-03-03T19:05:05.629Z,22.42
2023-03-03T19:07:41.495Z,20.67
2023-03-03T19:10:20.484Z,18.95
2023-03-03T19:12:57.842Z,21.58
2023-03-03T19:15:31.046Z,20.95
2023-03-03T19:18:25.579Z,20.98
2023-03-03T19:21:04.244Z,22.08
2023-03-03T19:24:01.900Z,22.95
2023-03-03T19:26:34.684Z,22.23
2023-03-03T19:29:55.876Z,21.95
2023-03-03T19:32:48.549Z,21.08
2023-03-03T19:35:21.361Z,20.50
2023-03-03T19:38:06.281Z,19.02
2023-03-03T19:41:00.992Z,20.13
2023-03-03T19:43:53.903Z,20.38
2023-03-03T19:46:23.587Z,19.10
2023-03-03T19:49:16.507Z,20.25
2023-03-03T19:52:11.642Z,21.65
2023-03-03T19:55:07.663Z,20.65
2023-03-03T19:57:54.451Z,21.10
2023-03-03T20:00:36.440Z,20.70
2023-03-03T20:03:44.671Z,21.80
2023-03-03T20:06:30.990Z,20.98
2023-03-03T20:09:18.749Z,21.23
2023-03-03T20:12:15.305Z,19.98
2023-03-03T20:14:44.224Z,21.55
2023-03-03T20:17:30.612Z,21.45
2023-03-03T20:20:26.371Z,20.77
2023-03-03T20:23:29.188Z,21.55
2023-03-03T20:26:07.884Z,21.55
2023-03-03T20:28:49.666Z,18.88
2023-03-03T20:31:39.159Z,21.05
2023-03-03T20:34:10.703Z,20.00
2023-03-03T20:36:56.092Z,19.05
2023-03-03T20:39:57.105Z,20.25
2023-03-03T20:42:45.504Z,17.88
2023-03-03T20:45:33.315Z,17.88
2023-03-03T20:48:28.064Z,18.10
2023-03-03T20:51:07.133Z,17.33
2023-03-03T20:54:02.412Z,17.05
2023-03-03T20:56:35.023Z,16.60
2023-03-03T20:59:20.806Z,15.95
2023-03-03T21:02:01.037Z,15.40
2023-03-03T21:04:31.945Z,16.83
2023-03-03T21:07:03.304Z,15.50
2023-03-03T21:09:36.700Z,14.68
2023-03-03T21:12:31.190Z,14.85
2023-03-03T21:17:30.177Z,12.23
2023-03-03T21:20:25.338Z,13.48
2023-03-03T21:22:52.676Z,14.05
2023-03-03T21:25:41.617Z,13.55
2023-03-03T21:28:19.273Z,12.60
2023-03-03T21:31:09.457Z,12.82
2023-03-03T21:33:51.205Z,13.43
2023-03-03T21:36:40.928Z,13.63
2023-03-03T21:39:33.771Z,13.27
2023-03-03T21:42:05.115Z,12.50
2023-03-03T21:44:34.920Z,12.23
2023-03-03T21:47:02.188Z,13.88
2023-03-03T21:49:29.030Z,13.68
2023-03-03T21:51:56.734Z,13.38
2023-03-03T21:54:24.282Z,13.68
2023-03-03T21:56:53.940Z,16.23
2023-03-03T21:59:20.797Z,14.00
2023-03-03T22:01:49.802Z,15.05
2023-03-03T22:04:19.694Z,14.30
2023-03-03T22:06:46.433Z,13.82
2023-03-03T22:09:13.481Z,14.00
2023-03-03T22:11:42.213Z,13.77
2023-03-03T22:14:09.028Z,14.57
2023-03-03T22:16:35.733Z,13.75
2023-03-03T22:19:03.095Z,13.65
2023-03-03T22:21:31.112Z,14.40
2023-03-03T22:23:58.339Z,13.55
2023-03-03T22:26:25.184Z,14.25
2023-03-03T22:28:51.905Z,15.18
2023-03-03T22:31:21.193Z,14.05
2023-03-03T22:33:50.476Z,13.68
2023-03-03T22:36:19.066Z,14.88
2023-03-03T22:38:47.456Z,14.15
2023-03-03T22:41:14.781Z,16.08
2023-03-03T22:43:42.107Z,14.60
2023-03-03T22:46:09.606Z,13.90
2023-03-03T22:48:37.539Z,13.93
2023-03-03T22:51:04.798Z,13.90
2023-03-03T22:53:31.449Z,14.60
2023-03-03T22:56:00.624Z,15.27
2023-03-03T22:58:27.453Z,16.85
2023-03-03T23:00:54.459Z,15.38
2023-03-03T23:03:21.623Z,14.43
2023-03-03T23:05:51.965Z,15.63
2023-03-03T23:08:20.283Z,16.45
2023-03-03T23:10:56.693Z,16.20
2023-03-03T23:13:25.118Z,15.07
2023-03-03T23:15:51.898Z,17.08
2023-03-03T23:18:20.844Z,17.63
2023-03-03T23:20:47.547Z,17.25
2023-03-03T23:23:14.246Z,18.15
2023-03-03T23:25:40.969Z,19.63
2023-03-03T23:28:10.183Z,19.98
2023-03-03T23:30:36.899Z,21.95
2023-03-03T23:33:03.580Z,20.45
2023-03-03T23:35:30.573Z,20.88
2023-03-03T23:37:57.344Z,21.40
2023-03-03T23:40:24.234Z,21.35
2023-03-03T23:42:51.042Z,21.42
2023-03-03T23:45:17.929Z,22.73
2023-03-03T23:47:44.779Z,20.73
2023-03-03T23:50:12.545Z,22.58
2023-03-03T23:52:41.797Z,22.83
2023-03-03T23:55:09.532Z,22.58
2023-03-03T23:57:36.191Z,24.08
